Marau, Brazil
Current Conditions -  °F | °C
As of 5:00 PM on Friday 19 Dec 2014 (Local Time) from SBIL Reporting Station
Rain Showers Rain Showers  
Wind Chill: 77°   Ceiling: 1500
Heat Index: 78°   Visibility: 3mi
Dew Point: 75°   Wind: 10mph
Humidity: 94%   Direction: 70°ENE
Pressure: NA   Gusts: NA
Location:  14.1°S, 39.01°W
Report Text: SBIL 192000Z 07009KT 5000 VCSH BR SCT007 BKN015 OVC070 25/24 Q1011
Loading
Personal Weather Stations






























Interactive Weather Map New forecast layout! Learn more

10-Day Weather Forecast

Advertisements
Track Severe Weather on mobile